MDT,Max TemperatureF,Mean TemperatureF,Min TemperatureF,Max Dew PointF,MeanDew PointF,Min DewpointF,Max Humidity, Mean Humidity, Min Humidity, Max Sea Level PressureIn, Mean Sea Level PressureIn, Min Sea Level PressureIn, Max VisibilityMiles, Mean VisibilityMiles, Min VisibilityMiles, Max Wind SpeedMPH, Mean Wind SpeedMPH, Max Gust SpeedMPH,PrecipitationIn, CloudCover, Events, WindDirDegrees
2011-10-1,75,60,46,37,31,23,61,36,15,30.19,30.12,30.06,10,10,10,13,10,16,0.00,0,,241
2011-10-2,75,62,51,41,37,32,62,43,21,30.15,30.10,30.04,10,10,10,22,11,20,0.00,1,,254
2011-10-3,73,60,48,47,41,37,71,52,29,30.31,30.10,30.04,10,10,10,17,7,23,0.00,5,Rain,248
2011-10-4,64,56,48,49,44,34,96,76,40,30.22,30.10,29.98,10,9,2,15,7,20,0.26,7,Rain,155
2011-10-5,62,52,42,47,43,38,97,79,46,30.15,29.98,29.79,10,8,0,30,11,38,0.21,5,Fog-Rain,221
2011-10-6,69,54,39,38,34,26,79,51,21,29.78,29.69,29.59,10,10,10,38,22,51,0.00,1,,237
2011-10-7,60,45,33,45,37,32,100,83,47,30.00,29.89,29.75,10,8,2,34,15,41,0.57,6,Rain-Snow,287
2011-10-8,52,42,32,36,31,29,100,76,43,30.08,29.95,29.81,10,9,2,41,24,52,0.00,2,Rain,290
2011-10-9,55,44,34,34,31,28,92,65,38,30.19,30.08,30.00,10,10,10,15,10,25,0.00,3,,102
2011-10-10,62,49,36,33,28,20,79,50,20,30.08,30.00,29.92,10,10,10,18,11,25,0.00,0,,253
2011-10-11,66,52,39,33,29,24,65,41,22,29.93,29.86,29.78,10,10,10,28,15,37,0.00,0,,288
2011-10-12,70,52,37,33,27,18,73,43,15,30.08,29.99,29.88,10,10,10,17,10,,0.00,0,,301
2011-10-13,72,57,42,29,23,12,58,32,10,30.07,29.98,29.89,10,10,10,28,13,30,0.00,0,,292
2011-10-14,73,57,41,32,24,17,50,30,15,30.04,29.96,29.89,10,10,10,23,16,31,0.00,0,,307
2011-10-15,75,58,41,35,28,14,70,39,10,30.12,30.06,30.00,10,10,10,14,8,22,0.00,0,,299
2011-10-16,78,60,46,27,24,19,42,28,12,30.09,30.00,29.93,10,10,10,24,12,32,0.00,0,,285
2011-10-17,70,56,39,34,24,6,77,33,9,30.11,29.93,29.83,10,10,10,43,18,53,0.00,0,,287
2011-10-18,55,44,32,31,28,25,82,58,35,30.27,30.21,30.10,10,10,10,12,8,16,0.00,0,,136
2011-10-19,64,48,32,27,24,18,70,44,17,30.23,30.10,29.96,10,10,10,17,9,21,0.00,0,,232
2011-10-20,69,52,36,26,19,11,64,32,12,30.09,29.99,29.89,10,10,10,26,15,32,0.00,0,,297
2011-10-21,69,54,39,21,17,14,41,27,14,30.17,30.09,30.04,10,10,10,25,13,36,0.00,0,,288
2011-10-22,69,52,37,20,18,17,43,28,15,30.14,30.07,30.03,10,10,10,23,12,31,0.00,0,,310
2011-10-23,70,57,44,25,21,19,43,29,15,30.16,30.10,30.05,10,10,10,12,7,16,0.00,0,,305
2011-10-24,72,56,41,31,23,18,43,28,15,30.15,30.06,29.98,10,10,10,25,12,34,0.00,0,,259
2011-10-25,66,57,46,37,34,30,71,46,28,29.99,29.94,29.89,10,10,10,33,17,43,0.00,1,,285
2011-10-26,52,40,28,36,32,27,100,81,54,30.06,29.96,29.79,10,6,0,25,17,33,0.48,6,Fog-Rain-Snow,89
2011-10-27,39,32,26,32,27,25,100,90,75,30.21,30.11,29.98,10,5,0,22,13,31,0.31,7,Fog-Snow,90
2011-10-28,52,40,28,36,31,25,92,77,46,30.34,30.26,30.18,10,10,10,10,6,,0.00,1,,230
2011-10-29,57,44,32,34,25,19,85,55,24,30.24,30.11,29.98,10,10,10,30,14,37,0.00,0,,291
2011-10-30,60,46,34,29,24,20,64,45,26,30.28,30.16,30.04,10,10,10,16,10,18,0.00,0,,254
2011-10-31,64,50,36,26,24,21,67,43,20,30.19,30.10,30.00,10,10,10,22,13,29,0.00,0,,276